createdAt,value
2018-11-04T00:02:25.760Z,100365.53
2018-11-04T00:04:55.540Z,100367.64
2018-11-04T00:07:26.196Z,100364.86
2018-11-04T00:09:55.911Z,100365.15
2018-11-04T00:12:26.030Z,100364.40
2018-11-04T00:14:56.140Z,100368.43
2018-11-04T00:17:27.656Z,100371.94
2018-11-04T00:19:57.512Z,100327.35
2018-11-04T00:22:27.042Z,100379.73
2018-11-04T00:24:56.460Z,100270.50
2018-11-04T00:27:25.864Z,100361.08
2018-11-04T00:29:55.840Z,100363.50
2018-11-04T00:32:25.414Z,100358.67
2018-11-04T00:34:55.595Z,100364.03
2018-11-04T00:37:25.361Z,100354.05
2018-11-04T00:39:55.656Z,100355.39
2018-11-04T00:42:25.061Z,100360.93
2018-11-04T00:44:54.847Z,100357.58
2018-11-04T00:47:24.271Z,100345.48
2018-11-04T00:49:53.723Z,100342.62
2018-11-04T00:52:25.355Z,100338.25
2018-11-04T00:54:55.421Z,100329.13
2018-11-04T00:57:25.037Z,100333.08
2018-11-04T00:59:54.562Z,100329.44
2018-11-04T01:02:24.088Z,100314.31
2018-11-04T01:04:53.554Z,100316.61
2018-11-04T01:07:26.202Z,100304.18
2018-11-04T01:09:57.559Z,100303.56
2018-11-04T01:12:27.292Z,100309.77
2018-11-04T01:14:57.405Z,100299.78
2018-11-04T01:17:26.925Z,100296.80
2018-11-04T01:19:58.184Z,100292.84
2018-11-04T01:22:33.675Z,100288.94
2018-11-04T01:25:05.756Z,100281.43
2018-11-04T01:27:35.431Z,100278.52
2018-11-04T01:30:07.769Z,100269.46
2018-11-04T01:32:37.773Z,100263.20
2018-11-04T01:35:07.561Z,100262.86
2018-11-04T01:37:37.216Z,100259.30
2018-11-04T01:40:10.248Z,100257.82
2018-11-04T01:42:41.703Z,100254.42
2018-11-04T01:45:14.044Z,100247.37
2018-11-04T01:47:44.777Z,100247.75
2018-11-04T01:50:15.190Z,100243.80
2018-11-04T01:52:45.375Z,100240.27
2018-11-04T01:55:15.120Z,100234.64
2018-11-04T01:57:45.296Z,100230.41
2018-11-04T02:00:17.709Z,100225.78
2018-11-04T02:02:48.595Z,100231.84
2018-11-04T02:05:18.266Z,100226.13
2018-11-04T02:07:50.408Z,100210.77
2018-11-04T02:10:25.720Z,100205.98
2018-11-04T02:12:56.490Z,100200.31
2018-11-04T02:15:27.394Z,100195.31
2018-11-04T02:17:56.768Z,100194.39
2018-11-04T02:20:29.836Z,100190.36
2018-11-04T02:23:00.624Z,100175.25
2018-11-04T02:25:30.840Z,100190.95
2018-11-04T02:28:02.037Z,100185.24
2018-11-04T02:30:32.828Z,100180.16
2018-11-04T02:33:02.224Z,100186.67
2018-11-04T02:35:32.554Z,100183.14
2018-11-04T02:38:02.785Z,100176.53
2018-11-04T02:40:33.624Z,100179.22
2018-11-04T02:43:03.715Z,100176.20
2018-11-04T02:45:33.350Z,100180.44
2018-11-04T02:48:02.788Z,100069.02
2018-11-04T02:50:32.951Z,100180.38
2018-11-04T02:53:02.430Z,100172.88
2018-11-04T02:55:31.897Z,100171.12
2018-11-04T02:58:02.739Z,100168.14
2018-11-04T03:00:32.864Z,100166.23
2018-11-04T03:03:03.109Z,100163.32
2018-11-04T03:05:32.552Z,100150.59
2018-11-04T03:08:03.851Z,100154.20
2018-11-04T03:10:33.269Z,100158.42
2018-11-04T03:13:02.981Z,100152.80
2018-11-04T03:15:32.645Z,100158.09
2018-11-04T03:18:02.104Z,100157.27
2018-11-04T03:20:31.845Z,100154.27
2018-11-04T03:23:01.226Z,100154.91
2018-11-04T03:25:30.680Z,100148.27
2018-11-04T03:28:00.107Z,100148.75
2018-11-04T03:30:30.272Z,100141.67
2018-11-04T03:32:59.677Z,100132.89
2018-11-04T03:35:29.388Z,100144.81
2018-11-04T03:37:58.788Z,100135.63
2018-11-04T03:40:28.208Z,100140.03
2018-11-04T03:42:57.693Z,100136.73
2018-11-04T03:45:27.163Z,100137.06
2018-11-04T03:47:56.611Z,100134.53
2018-11-04T03:50:27.181Z,100129.53
2018-11-04T03:53:00.698Z,100135.05
2018-11-04T03:55:30.128Z,100131.79
2018-11-04T03:58:00.064Z,100127.86
2018-11-04T04:00:29.504Z,100084.90
2018-11-04T04:02:58.974Z,100129.41
2018-11-04T04:05:30.384Z,100088.22
2018-11-04T04:07:59.780Z,100122.44
2018-11-04T04:10:30.541Z,100123.68
2018-11-04T04:13:00.765Z,100122.18
2018-11-04T04:15:31.066Z,100117.44
2018-11-04T04:18:00.506Z,100117.19
2018-11-04T04:20:31.606Z,100112.08
2018-11-04T04:23:01.056Z,100116.28
2018-11-04T04:25:31.784Z,100114.05
2018-11-04T04:28:03.900Z,100111.87
2018-11-04T04:30:33.388Z,100111.45
2018-11-04T04:33:03.598Z,100106.83
2018-11-04T04:35:34.733Z,100102.80
2018-11-04T04:38:04.887Z,100101.58
2018-11-04T04:40:34.676Z,100094.35
2018-11-04T04:43:07.624Z,100096.41
2018-11-04T04:45:37.880Z,100092.81
2018-11-04T04:48:07.373Z,100094.94
2018-11-04T04:50:37.289Z,100087.27
2018-11-04T04:53:07.628Z,100088.66
2018-11-04T04:55:42.713Z,100085.02
2018-11-04T04:58:13.068Z,100092.31
2018-11-04T05:00:44.627Z,100091.80
2018-11-04T05:03:14.056Z,100085.73
2018-11-04T05:05:44.297Z,100094.86
2018-11-04T05:08:14.520Z,100099.32
2018-11-04T05:10:45.747Z,100094.68
2018-11-04T05:13:15.228Z,100082.86
2018-11-04T05:15:53.904Z,100089.77
2018-11-04T05:18:24.052Z,100090.16
2018-11-04T05:20:53.526Z,100091.22
2018-11-04T05:23:23.303Z,100018.53
2018-11-04T05:25:52.689Z,100092.12
2018-11-04T05:28:22.909Z,100084.44
2018-11-04T05:30:52.892Z,100076.71
2018-11-04T05:33:22.688Z,100086.69
2018-11-04T05:35:52.299Z,100077.02
2018-11-04T05:38:21.771Z,100068.44
2018-11-04T05:40:52.586Z,100071.34
2018-11-04T05:43:22.971Z,100067.54
2018-11-04T05:45:52.439Z,100078.88
2018-11-04T05:48:21.982Z,100071.66
2018-11-04T05:50:51.372Z,100066.46
2018-11-04T05:53:21.300Z,99973.00
2018-11-04T05:55:52.474Z,100061.36
2018-11-04T05:58:22.768Z,100062.32
2018-11-04T06:00:52.451Z,100056.48
2018-11-04T06:05:55.504Z,100066.03
2018-11-04T06:08:26.483Z,100059.45
2018-11-04T06:10:59.137Z,99968.99
2018-11-04T06:13:30.599Z,100072.30
2018-11-04T06:16:00.791Z,100072.47
2018-11-04T06:18:30.288Z,100074.09
2018-11-04T06:21:01.351Z,100068.90
2018-11-04T06:23:31.956Z,100071.02
2018-11-04T06:26:01.337Z,100075.34
2018-11-04T06:28:31.528Z,100079.53
2018-11-04T06:31:01.005Z,100074.84
2018-11-04T06:33:30.430Z,100079.05
2018-11-04T06:35:59.832Z,100080.97
2018-11-04T06:38:29.289Z,100077.41
2018-11-04T06:41:00.645Z,100079.50
2018-11-04T06:43:30.228Z,100073.63
2018-11-04T06:45:59.644Z,100072.74
2018-11-04T06:48:29.209Z,100075.98
2018-11-04T06:50:58.665Z,100066.97
2018-11-04T06:53:28.870Z,100070.81
2018-11-04T06:55:58.543Z,100076.06
2018-11-04T06:58:28.763Z,100075.09
2018-11-04T07:00:58.167Z,100080.97
2018-11-04T07:03:27.552Z,100071.52
2018-11-04T07:06:00.916Z,100083.66
2018-11-04T07:08:31.404Z,100073.95
2018-11-04T07:11:00.922Z,100068.45
2018-11-04T07:13:30.922Z,100070.38
2018-11-04T07:16:00.353Z,100065.01
2018-11-04T07:18:30.592Z,100070.70
2018-11-04T07:21:00.826Z,100002.21
2018-11-04T07:23:30.256Z,100075.18
2018-11-04T07:26:01.288Z,100070.11
2018-11-04T07:28:35.220Z,100073.89
2018-11-04T07:31:05.545Z,100072.79
2018-11-04T07:33:47.289Z,100065.70
2018-11-04T07:36:22.923Z,100067.23
2018-11-04T07:38:53.110Z,100069.35
2018-11-04T07:41:26.248Z,100065.77
2018-11-04T07:43:56.517Z,100067.03
2018-11-04T07:46:25.988Z,100064.43
2018-11-04T07:48:57.076Z,100068.58
2018-11-04T07:51:27.422Z,100068.77
2018-11-04T07:53:57.012Z,100063.07
2018-11-04T07:56:27.133Z,100066.09
2018-11-04T07:58:57.912Z,100061.67
2018-11-04T08:01:28.104Z,100060.15
2018-11-04T08:03:58.327Z,100062.75
2018-11-04T08:06:30.394Z,100057.99
2018-11-04T08:09:01.442Z,100060.59
2018-11-04T08:11:31.656Z,100056.20
2018-11-04T08:14:02.644Z,100053.07
2018-11-04T08:16:33.374Z,100052.97
2018-11-04T08:19:03.284Z,100057.84
2018-11-04T08:21:33.449Z,100061.70
2018-11-04T08:24:03.685Z,100053.13
2018-11-04T08:26:41.420Z,100058.44
2018-11-04T08:29:12.103Z,100061.31
2018-11-04T08:31:42.268Z,100067.17
2018-11-04T08:34:12.474Z,100070.66
2018-11-04T08:36:42.277Z,100069.48
2018-11-04T08:39:13.366Z,100054.88
2018-11-04T08:41:43.845Z,100062.37
2018-11-04T08:44:13.839Z,100053.91
2018-11-04T08:46:44.312Z,100054.69
2018-11-04T08:49:15.673Z,100043.00
2018-11-04T08:51:45.884Z,100056.50
2018-11-04T08:54:17.156Z,100049.27
2018-11-04T08:56:50.405Z,100048.03
2018-11-04T08:59:23.266Z,100043.16
2018-11-04T09:01:53.279Z,100052.07
2018-11-04T09:04:25.381Z,100043.77
2018-11-04T09:07:00.836Z,100033.57
2018-11-04T09:09:35.830Z,100032.91
2018-11-04T09:12:07.559Z,100042.98
2018-11-04T09:14:39.135Z,100044.23
2018-11-04T09:17:12.029Z,100040.28
2018-11-04T09:19:45.217Z,100035.34
2018-11-04T09:22:17.999Z,100031.02
2018-11-04T09:27:22.437Z,100024.06
2018-11-04T09:29:54.183Z,100041.23
2018-11-04T09:32:24.221Z,100034.72
2018-11-04T09:34:53.870Z,100008.72
2018-11-04T09:37:24.728Z,100025.88
2018-11-04T09:42:32.449Z,100019.68
2018-11-04T09:45:06.356Z,100025.91
2018-11-04T09:47:41.161Z,100016.96
2018-11-04T09:50:12.298Z,100018.20
2018-11-04T09:52:42.499Z,100031.25
2018-11-04T09:55:12.635Z,100036.05
2018-11-04T09:57:42.046Z,100025.11
2018-11-04T10:02:34.773Z,100022.58
2018-11-04T10:05:06.056Z,100025.03
2018-11-04T10:07:37.240Z,100020.56
2018-11-04T10:10:15.420Z,100011.55
2018-11-04T10:12:49.565Z,100011.80
2018-11-04T10:15:20.342Z,100011.69
2018-11-04T10:17:52.660Z,100006.41
2018-11-04T10:20:24.313Z,100003.39
2018-11-04T10:22:54.600Z,100006.77
2018-11-04T10:25:24.903Z,99993.08
2018-11-04T10:27:56.310Z,99989.62
2018-11-04T10:30:26.565Z,99992.96
2018-11-04T10:32:58.099Z,99977.07
2018-11-04T10:35:30.444Z,99971.30
2018-11-04T10:38:00.470Z,99964.23
2018-11-04T10:40:30.672Z,99963.20
2018-11-04T10:43:01.756Z,99988.81
2018-11-04T10:45:32.627Z,99970.91
2018-11-04T10:48:03.234Z,99957.81
2018-11-04T10:50:33.256Z,99957.81
2018-11-04T10:53:07.725Z,99960.19
2018-11-04T10:55:47.207Z,99957.59
2018-11-04T10:58:18.520Z,99965.85
2018-11-04T11:00:55.413Z,99959.11
2018-11-04T11:03:24.862Z,99973.58
2018-11-04T11:05:55.959Z,99951.77
2018-11-04T11:08:25.603Z,99953.92
2018-11-04T11:10:58.757Z,99932.06
2018-11-04T11:13:29.494Z,99939.59
2018-11-04T11:15:59.973Z,99924.34
2018-11-04T11:18:29.872Z,99924.42
2018-11-04T11:21:00.874Z,99921.35
2018-11-04T11:23:31.308Z,99915.30
2018-11-04T11:26:02.672Z,99912.58
2018-11-04T11:28:34.921Z,99908.28
2018-11-04T11:31:06.154Z,99897.15
2018-11-04T11:33:36.314Z,99897.92
2018-11-04T11:36:06.339Z,99887.22
2018-11-04T11:38:35.852Z,99803.52
2018-11-04T11:41:05.356Z,99870.69
2018-11-04T11:43:38.553Z,99873.30
2018-11-04T11:46:08.618Z,99871.48
2018-11-04T11:48:38.900Z,99866.64
2018-11-04T11:51:14.583Z,99865.37
2018-11-04T11:53:47.232Z,99853.84
2018-11-04T11:56:18.617Z,99853.02
2018-11-04T11:58:51.080Z,99856.55
2018-11-04T12:01:20.509Z,99848.23
2018-11-04T12:03:51.037Z,99846.02
2018-11-04T12:06:22.561Z,99849.33
2018-11-04T12:08:55.382Z,99846.58
2018-11-04T12:11:29.012Z,99842.23
2018-11-04T12:13:59.345Z,99836.33
2018-11-04T12:16:30.964Z,99830.57
2018-11-04T12:19:11.869Z,99831.84
2018-11-04T12:21:41.265Z,99828.23
2018-11-04T12:24:18.459Z,99822.94
2018-11-04T12:26:48.484Z,99813.32
2018-11-04T12:29:19.317Z,99809.12
2018-11-04T12:31:49.779Z,99813.02
2018-11-04T12:34:22.486Z,99811.35
2018-11-04T12:36:55.444Z,99801.92
2018-11-04T12:39:25.674Z,99810.26
2018-11-04T12:42:01.714Z,99804.91
2018-11-04T12:44:31.485Z,99804.19
2018-11-04T12:47:01.826Z,99806.10
2018-11-04T12:49:33.210Z,99811.27
2018-11-04T12:52:05.294Z,99810.48
2018-11-04T12:54:38.202Z,99806.88
2018-11-04T12:57:07.732Z,99802.63
2018-11-04T12:59:37.237Z,99805.62
2018-11-04T13:02:08.749Z,99805.02
2018-11-04T13:04:39.392Z,99804.25
2018-11-04T13:07:09.932Z,99796.38
2018-11-04T13:09:39.357Z,99797.22
2018-11-04T13:12:12.747Z,99797.74
2018-11-04T13:14:46.784Z,99775.57
2018-11-04T13:17:17.529Z,99790.05
2018-11-04T13:19:51.360Z,99786.02
2018-11-04T13:22:22.533Z,99780.59
2018-11-04T13:24:51.957Z,99772.75
2018-11-04T13:27:22.809Z,99763.22
2018-11-04T13:30:02.898Z,99755.69
2018-11-04T13:32:34.177Z,99754.19
2018-11-04T13:35:13.877Z,99751.78
2018-11-04T13:37:43.592Z,99757.48
2018-11-04T13:40:15.048Z,99754.11
2018-11-04T13:42:45.220Z,99738.92
2018-11-04T13:45:15.852Z,99744.27
2018-11-04T13:47:46.405Z,99740.57
2018-11-04T13:50:15.831Z,99739.38
2018-11-04T13:52:53.453Z,99732.55
2018-11-04T13:55:22.912Z,99724.34
2018-11-04T13:57:52.300Z,99725.38
2018-11-04T14:00:23.724Z,99721.56
2018-11-04T14:02:54.230Z,99729.11
2018-11-04T14:05:26.399Z,99731.37
2018-11-04T14:07:58.734Z,99736.02
2018-11-04T14:10:30.192Z,99731.79
2018-11-04T14:12:59.802Z,99735.59
2018-11-04T14:15:29.373Z,99730.72
2018-11-04T14:17:58.744Z,99724.04
2018-11-04T14:20:28.743Z,99715.17
2018-11-04T14:23:00.348Z,99719.53
2018-11-04T14:25:30.473Z,99713.22
2018-11-04T14:28:00.234Z,99701.53
2018-11-04T14:30:29.737Z,99714.16
2018-11-04T14:32:59.606Z,99711.19
2018-11-04T14:35:29.325Z,99727.66
2018-11-04T14:37:59.549Z,99709.52
2018-11-04T14:40:30.831Z,99703.99
2018-11-04T14:43:05.269Z,99705.24
2018-11-04T14:45:37.459Z,99703.44
2018-11-04T14:48:12.795Z,99700.55
2018-11-04T14:50:43.311Z,99712.31
2018-11-04T14:53:12.761Z,99709.85
2018-11-04T14:55:42.673Z,99709.47
2018-11-04T14:58:14.216Z,99635.36
2018-11-04T15:00:44.630Z,99695.44
2018-11-04T15:03:15.213Z,99687.25
2018-11-04T15:05:46.569Z,99681.78
2018-11-04T15:08:18.065Z,99680.50
2018-11-04T15:10:47.421Z,99674.36
2018-11-04T15:13:17.526Z,99669.54
2018-11-04T15:15:51.499Z,99674.02
2018-11-04T15:18:20.882Z,99667.71
2018-11-04T15:20:51.610Z,99671.84
2018-11-04T15:23:21.581Z,99613.12
2018-11-04T15:25:51.896Z,99673.29
2018-11-04T15:28:23.297Z,99676.30
2018-11-04T15:30:54.245Z,99681.64
2018-11-04T15:33:26.356Z,99591.13
2018-11-04T15:35:57.274Z,99683.66
2018-11-04T15:38:27.307Z,99681.02
2018-11-04T15:40:59.221Z,99677.53
2018-11-04T15:43:28.521Z,99674.22
2018-11-04T15:45:59.428Z,99670.78
2018-11-04T15:48:29.067Z,99676.62
2018-11-04T15:51:01.426Z,99668.22
2018-11-04T15:53:31.441Z,99671.96
2018-11-04T15:56:04.094Z,99673.98
2018-11-04T15:58:33.756Z,99666.83
2018-11-04T16:01:07.599Z,99665.64
2018-11-04T16:03:39.518Z,99662.25
2018-11-04T16:06:09.820Z,99643.27
2018-11-04T16:08:40.671Z,99660.83
2018-11-04T16:11:13.312Z,99630.05
2018-11-04T16:13:44.409Z,99648.64
2018-11-04T16:16:15.376Z,99658.87
2018-11-04T16:18:47.582Z,99657.57
2018-11-04T16:21:17.173Z,99666.34
2018-11-04T16:23:47.682Z,99660.56
2018-11-04T16:26:17.024Z,99666.65
2018-11-04T16:28:47.938Z,99663.14
2018-11-04T16:31:17.924Z,99658.03
2018-11-04T16:33:47.297Z,99649.92
2018-11-04T16:36:17.487Z,99637.18
2018-11-04T16:38:50.698Z,99633.34
2018-11-04T16:41:28.205Z,99626.25
2018-11-04T16:43:57.628Z,99645.34
2018-11-04T16:46:30.437Z,99637.45
2018-11-04T16:49:02.032Z,99637.30
2018-11-04T16:51:34.847Z,99634.77
2018-11-04T16:54:04.808Z,99645.86
2018-11-04T16:56:35.627Z,99634.60
2018-11-04T16:59:05.746Z,99635.28
2018-11-04T17:01:35.330Z,99635.95
2018-11-04T17:04:05.469Z,99645.95
2018-11-04T17:06:35.131Z,99636.27
2018-11-04T17:09:06.443Z,99646.83
2018-11-04T17:11:38.876Z,99643.13
2018-11-04T17:14:20.266Z,99645.71
2018-11-04T17:16:51.069Z,99645.35
2018-11-04T17:19:21.623Z,99642.86
2018-11-04T17:21:55.820Z,99635.32
2018-11-04T17:24:30.600Z,99653.05
2018-11-04T17:27:05.798Z,99644.88
2018-11-04T17:29:36.561Z,99644.13
2018-11-04T17:32:09.646Z,99650.87
2018-11-04T17:34:41.520Z,99647.17
2018-11-04T17:37:18.208Z,99641.11
2018-11-04T17:39:49.239Z,99638.73
2018-11-04T17:42:19.437Z,99634.02
2018-11-04T17:44:52.614Z,99635.71
2018-11-04T17:47:25.310Z,99642.73
2018-11-04T17:49:57.691Z,99654.35
2018-11-04T17:52:27.977Z,99636.16
2018-11-04T17:54:59.380Z,99633.61
2018-11-04T17:57:32.474Z,99633.70
2018-11-04T18:00:05.632Z,99632.27
2018-11-04T18:02:45.441Z,99631.08
2018-11-04T18:05:16.044Z,99634.09
2018-11-04T18:07:48.916Z,99635.71
2018-11-04T18:10:19.029Z,99639.09
2018-11-04T18:12:50.240Z,99637.22
2018-11-04T18:15:22.657Z,99628.45
2018-11-04T18:17:54.163Z,99559.80
2018-11-04T18:20:28.444Z,99629.38
2018-11-04T18:23:02.557Z,99623.91
2018-11-04T18:25:31.952Z,99628.66
2018-11-04T18:28:02.836Z,99628.93
2018-11-04T18:30:32.558Z,99622.23
2018-11-04T18:33:04.750Z,99624.09
2018-11-04T18:35:34.991Z,99625.84
2018-11-04T18:38:11.095Z,99615.93
2018-11-04T18:40:42.702Z,99616.48
2018-11-04T18:43:12.658Z,99606.93
2018-11-04T18:45:42.445Z,99608.00
2018-11-04T18:48:11.842Z,99597.22
2018-11-04T18:50:41.926Z,99596.23
2018-11-04T18:53:12.655Z,99594.76
2018-11-04T18:55:42.036Z,99588.84
2018-11-04T18:58:12.218Z,99601.89
2018-11-04T19:00:43.732Z,99599.27
2018-11-04T19:03:13.080Z,99607.44
2018-11-04T19:05:43.799Z,99606.69
2018-11-04T19:08:13.401Z,99603.50
2018-11-04T19:10:49.940Z,99618.30
2018-11-04T19:13:20.711Z,99615.13
2018-11-04T19:15:51.840Z,99609.39
2018-11-04T19:18:22.132Z,99619.17
2018-11-04T19:20:52.525Z,99626.39
2018-11-04T19:23:23.673Z,99617.57
2018-11-04T19:25:55.959Z,99628.41
2018-11-04T19:28:25.424Z,99618.89
2018-11-04T19:30:57.826Z,99616.84
2018-11-04T19:33:27.218Z,99617.79
2018-11-04T19:35:58.095Z,99612.99
2018-11-04T19:38:28.544Z,99606.49
2018-11-04T19:40:58.465Z,99610.89
2018-11-04T19:43:28.062Z,99606.84
2018-11-04T19:45:59.273Z,99605.92
2018-11-04T19:48:29.059Z,99606.67
2018-11-04T19:51:01.156Z,99600.72
2018-11-04T19:53:30.684Z,99606.52
2018-11-04T19:56:00.046Z,99603.78
2018-11-04T19:58:29.381Z,99598.03
2018-11-04T20:01:02.357Z,99591.84
2018-11-04T20:03:33.160Z,99586.84
2018-11-04T20:06:02.783Z,99590.14
2018-11-04T20:08:34.528Z,99598.40
2018-11-04T20:11:06.562Z,99562.20
2018-11-04T20:13:41.089Z,99595.63
2018-11-04T20:16:17.585Z,99603.13
2018-11-04T20:18:59.421Z,99607.00
2018-11-04T20:21:28.753Z,99578.16
2018-11-04T20:23:58.537Z,99603.98
2018-11-04T20:26:28.392Z,99603.67
2018-11-04T20:28:58.616Z,99600.69
2018-11-04T20:31:35.945Z,99601.44
2018-11-04T20:34:06.420Z,99606.97
2018-11-04T20:36:36.616Z,99597.94
2018-11-04T20:39:15.907Z,99600.00
2018-11-04T20:41:47.422Z,99582.75
2018-11-04T20:44:20.076Z,99585.25
2018-11-04T20:46:53.222Z,99587.45
2018-11-04T20:49:29.847Z,99579.52
2018-11-04T20:52:00.654Z,99570.86
2018-11-04T20:54:30.188Z,99566.33
2018-11-04T20:57:06.140Z,99562.77
2018-11-04T20:59:37.220Z,99561.45
2018-11-04T21:02:06.709Z,99553.73
2018-11-04T21:04:36.694Z,99557.13
2018-11-04T21:07:07.196Z,99552.92
2018-11-04T21:09:37.365Z,99547.92
2018-11-04T21:12:08.240Z,99550.95
2018-11-04T21:14:37.607Z,99548.52
2018-11-04T21:17:08.868Z,99533.94
2018-11-04T21:19:39.769Z,99527.53
2018-11-04T21:22:12.960Z,99524.36
2018-11-04T21:24:42.561Z,99525.31
2018-11-04T21:27:13.510Z,99521.27
2018-11-04T21:29:43.217Z,99528.16
2018-11-04T21:32:12.477Z,99532.27
2018-11-04T21:34:43.793Z,99519.79
2018-11-04T21:37:14.152Z,99521.69
2018-11-04T21:39:45.296Z,99522.23
2018-11-04T21:42:14.836Z,99514.15
2018-11-04T21:44:44.783Z,99500.86
2018-11-04T21:47:15.356Z,99512.55
2018-11-04T21:49:46.493Z,99507.59
2018-11-04T21:52:15.925Z,99510.00
2018-11-04T21:54:45.955Z,99514.03
2018-11-04T21:57:17.636Z,99519.42
2018-11-04T21:59:48.877Z,99523.06
2018-11-04T22:02:18.377Z,99520.53
2018-11-04T22:04:51.310Z,99529.61
2018-11-04T22:07:21.813Z,99530.09
2018-11-04T22:09:54.220Z,99498.37
2018-11-04T22:12:24.279Z,99517.43
2018-11-04T22:14:56.446Z,99497.23
2018-11-04T22:17:26.838Z,99509.39
2018-11-04T22:19:59.643Z,99521.63
2018-11-04T22:22:29.018Z,99512.99
2018-11-04T22:24:58.925Z,99507.61
2018-11-04T22:27:28.378Z,99508.36
2018-11-04T22:29:59.789Z,99408.22
2018-11-04T22:32:29.143Z,99499.86
2018-11-04T22:34:58.576Z,99477.86
2018-11-04T22:37:29.149Z,99492.58
2018-11-04T22:40:02.592Z,99495.27
2018-11-04T22:42:33.681Z,99495.27
2018-11-04T22:45:03.359Z,99500.45
2018-11-04T22:47:32.682Z,99492.67
2018-11-04T22:50:02.825Z,99496.83
2018-11-04T22:52:32.169Z,99500.09
2018-11-04T22:55:01.552Z,99492.53
2018-11-04T22:57:32.428Z,99391.35
2018-11-04T23:00:05.518Z,99488.44
2018-11-04T23:02:36.302Z,99488.20
2018-11-04T23:05:10.881Z,99475.66
2018-11-04T23:07:44.612Z,99475.46
2018-11-04T23:10:16.439Z,99474.46
2018-11-04T23:12:47.169Z,99467.41
2018-11-04T23:15:18.052Z,99458.42
2018-11-04T23:17:47.447Z,99454.13
2018-11-04T23:20:17.776Z,99447.36
2018-11-04T23:22:49.622Z,99444.63
2018-11-04T23:25:20.212Z,99437.55
2018-11-04T23:27:50.764Z,99436.33
2018-11-04T23:32:58.133Z,99425.58
2018-11-04T23:35:28.185Z,99416.19
2018-11-04T23:37:57.590Z,99419.13
2018-11-04T23:40:28.620Z,99417.02
2018-11-04T23:42:58.028Z,99421.17
2018-11-04T23:45:27.436Z,99410.41
2018-11-04T23:48:03.468Z,99416.75
2018-11-04T23:50:32.963Z,99409.31
2018-11-04T23:53:02.412Z,99400.48
2018-11-04T23:55:31.805Z,99409.47
2018-11-04T23:58:01.277Z,99426.48
